Time,TemperatureF,DewpointF,PressureIn,WindDirection,WindDirectionDegrees,WindSpeedMPH,WindSpeedGustMPH,Humidity,HourlyPrecipIn,Conditions,Clouds,dailyrainin,SoftwareType,DateUTC
2013-01-26 00:04:00,7.7,4.6,30.13,NW,315,8.1,8.1,87,0.00,CLR,SKC,0.00,WeatherDisplay:10.37,2013-01-26 06:04:00,
2013-01-26 00:09:00,7.7,4.6,30.14,NNE,14,10.4,10.4,87,0.00,CLR,SKC,0.00,WeatherDisplay:10.37,2013-01-26 06:09:00,
2013-01-26 00:15:00,7.7,4.6,30.14,NW,315,8.1,8.1,87,0.00,CLR,SKC,0.00,WeatherDisplay:10.37,2013-01-26 06:15:00,
2013-01-26 00:20:00,7.7,4.6,30.14,NW,315,6.9,6.9,87,0.00,CLR,SKC,0.00,WeatherDisplay:10.37,2013-01-26 06:20:00,
2013-01-26 00:25:00,7.5,4.5,30.14,NW,315,5.8,5.8,87,0.00,CLR,SKC,0.00,WeatherDisplay:10.37,2013-01-26 06:25:00,
2013-01-26 00:30:00,7.5,4.5,30.15,NW,315,8.1,8.1,87,0.00,CLR,SKC,0.00,WeatherDisplay:10.37,2013-01-26 06:30:00,
2013-01-26 00:36:00,7.3,4.3,30.15,North,0,5.8,5.8,87,0.00,CLR,SKC,0.00,WeatherDisplay:10.37,2013-01-26 06:36:00,
2013-01-26 00:41:00,7.3,4.3,30.15,NW,315,9.2,9.2,87,0.00,CLR,SKC,0.00,WeatherDisplay:10.37,2013-01-26 06:41:00,
2013-01-26 00:46:00,7.3,4.3,30.15,NNW,338,6.0,6.0,87,0.00,CLR,SKC,0.00,WeatherDisplay:10.37,2013-01-26 06:46:00,
2013-01-26 00:51:00,7.3,4.3,30.16,NW,315,4.6,4.6,87,0.00,CLR,SKC,0.00,WeatherDisplay:10.37,2013-01-26 06:51:00,
2013-01-26 00:56:00,7.3,4.3,30.16,North,0,5.8,5.8,87,0.00,CLR,SKC,0.00,WeatherDisplay:10.37,2013-01-26 06:56:00,
2013-01-26 01:01:00,7.3,4.3,30.16,NNW,338,5.8,5.8,87,0.00,CLR,SKC,0.00,WeatherDisplay:10.37,2013-01-26 07:01:00,
2013-01-26 01:07:00,7.3,4.3,30.15,NNW,338,5.8,5.8,87,0.00,CLR,SKC,0.00,WeatherDisplay:10.37,2013-01-26 07:07:00,
2013-01-26 01:12:00,7.2,4.1,30.16,North,0,5.8,5.8,87,0.00,CLR,SKC,0.00,WeatherDisplay:10.37,2013-01-26 07:12:00,
2013-01-26 01:17:00,7.2,4.1,30.17,North,0,5.8,5.8,87,0.00,CLR,SKC,0.00,WeatherDisplay:10.37,2013-01-26 07:17:00,
2013-01-26 01:22:00,7.2,4.1,30.17,NW,315,6.9,6.9,87,0.00,CLR,SKC,0.00,WeatherDisplay:10.37,2013-01-26 07:22:00,
2013-01-26 01:27:00,7.2,4.1,30.17,NNW,338,8.1,8.1,87,0.00,CLR,SKC,0.00,WeatherDisplay:10.37,2013-01-26 07:27:00,
2013-01-26 01:33:00,7.2,4.1,30.17,NW,315,5.8,5.8,87,0.00,CLR,SKC,0.00,WeatherDisplay:10.37,2013-01-26 07:33:00,
2013-01-26 01:38:00,7.2,4.1,30.17,NW,315,6.9,6.9,87,0.00,CLR,SKC,0.00,WeatherDisplay:10.37,2013-01-26 07:38:00,
2013-01-26 01:43:00,7.2,4.1,30.17,North,0,6.9,6.9,87,0.00,CLR,SKC,0.00,WeatherDisplay:10.37,2013-01-26 07:43:00,
2013-01-26 01:48:00,7.2,4.1,30.18,NW,315,8.1,8.1,87,0.00,CLR,SKC,0.00,WeatherDisplay:10.37,2013-01-26 07:48:00,
2013-01-26 01:54:00,7.2,3.9,30.18,NW,315,5.8,5.8,86,0.00,CLR,SKC,0.00,WeatherDisplay:10.37,2013-01-26 07:54:00,
2013-01-26 01:59:00,7.2,3.9,30.19,NW,315,4.6,4.6,86,0.00,CLR,SKC,0.00,WeatherDisplay:10.37,2013-01-26 07:59:00,
2013-01-26 02:04:00,7.2,3.9,30.19,NW,315,3.5,3.5,86,0.00,CLR,SKC,0.00,WeatherDisplay:10.37,2013-01-26 08:04:00,
2013-01-26 02:09:00,7.2,3.9,30.19,NW,315,5.8,5.8,86,0.00,CLR,SKC,0.00,WeatherDisplay:10.37,2013-01-26 08:09:00,
2013-01-26 02:15:00,7.2,3.9,30.19,NW,315,6.9,6.9,86,0.00,CLR,SKC,0.00,WeatherDisplay:10.37,2013-01-26 08:15:00,
2013-01-26 02:20:00,7.2,3.9,30.19,NW,315,4.6,4.6,86,0.00,CLR,SKC,0.00,WeatherDisplay:10.37,2013-01-26 08:20:00,
2013-01-26 02:25:00,7.2,3.9,30.19,SE,135,1.1,0.0,86,0.00,CLR,SKC,0.00,WeatherDisplay:10.37,2013-01-26 08:25:00,
2013-01-26 02:30:00,7.2,3.9,30.19,North,0,5.8,5.8,86,0.00,CLR,SKC,0.00,WeatherDisplay:10.37,2013-01-26 08:30:00,
2013-01-26 02:36:00,7.2,3.9,30.19,North,0,4.6,4.6,86,0.00,CLR,SKC,0.00,WeatherDisplay:10.37,2013-01-26 08:36:00,
2013-01-26 02:41:00,7.0,3.7,30.19,North,0,4.6,4.6,86,0.00,CLR,SKC,0.00,WeatherDisplay:10.37,2013-01-26 08:41:00,
2013-01-26 02:46:00,7.0,3.7,30.19,NW,315,4.6,4.6,86,0.00,CLR,SKC,0.00,WeatherDisplay:10.37,2013-01-26 08:46:00,
2013-01-26 02:51:00,7.0,3.7,30.19,North,0,3.5,3.5,86,0.00,CLR,SKC,0.00,WeatherDisplay:10.37,2013-01-26 08:51:00,
2013-01-26 02:57:00,7.0,3.7,30.19,NW,315,3.5,3.5,86,0.00,CLR,SKC,0.00,WeatherDisplay:10.37,2013-01-26 08:57:00,
2013-01-26 03:02:00,7.0,3.7,30.19,East,90,1.1,1.1,86,0.00,CLR,SKC,0.00,WeatherDisplay:10.37,2013-01-26 09:02:00,
2013-01-26 03:07:00,7.0,3.7,30.19,NW,315,6.9,6.9,86,0.00,CLR,SKC,0.00,WeatherDisplay:10.37,2013-01-26 09:07:00,
2013-01-26 03:13:00,6.8,3.5,30.19,NW,315,5.8,5.8,86,0.00,CLR,SKC,0.00,WeatherDisplay:10.37,2013-01-26 09:13:00,
2013-01-26 03:18:00,6.8,3.5,30.19,NW,315,5.8,5.8,86,0.00,CLR,SKC,0.00,WeatherDisplay:10.37,2013-01-26 09:18:00,
2013-01-26 03:23:00,6.8,3.5,30.19,NW,315,5.8,5.8,86,0.00,CLR,SKC,0.00,WeatherDisplay:10.37,2013-01-26 09:23:00,
2013-01-26 03:28:00,6.8,3.5,30.19,North,0,8.1,8.1,86,0.00,CLR,SKC,0.00,WeatherDisplay:10.37,2013-01-26 09:28:00,
2013-01-26 03:34:00,6.8,3.5,30.19,NW,315,5.8,5.8,86,0.00,CLR,SKC,0.00,WeatherDisplay:10.37,2013-01-26 09:34:00,
2013-01-26 03:39:00,6.8,3.5,30.20,North,0,4.6,4.6,86,0.00,CLR,SKC,0.00,WeatherDisplay:10.37,2013-01-26 09:39:00,
2013-01-26 03:44:00,6.8,3.5,30.19,North,0,3.5,3.5,86,0.00,CLR,SKC,0.00,WeatherDisplay:10.37,2013-01-26 09:44:00,
2013-01-26 03:49:00,6.8,3.5,30.19,North,0,5.8,5.8,86,0.00,CLR,SKC,0.00,WeatherDisplay:10.37,2013-01-26 09:49:00,
2013-01-26 03:55:00,6.6,3.3,30.19,NNW,338,5.8,5.8,86,0.00,CLR,SKC,0.00,WeatherDisplay:10.37,2013-01-26 09:55:00,
2013-01-26 04:00:00,6.6,3.3,30.19,North,0,5.8,5.8,86,0.00,CLR,SKC,0.00,WeatherDisplay:10.37,2013-01-26 10:00:00,
2013-01-26 04:05:00,6.6,3.3,30.19,North,0,5.8,5.8,86,0.00,CLR,SKC,0.00,WeatherDisplay:10.37,2013-01-26 10:05:00,
2013-01-26 04:10:00,6.6,3.6,30.19,NW,315,5.8,5.8,87,0.00,CLR,SKC,0.00,WeatherDisplay:10.37,2013-01-26 10:10:00,
2013-01-26 04:16:00,6.6,3.6,30.19,North,0,5.8,5.8,87,0.00,CLR,SKC,0.00,WeatherDisplay:10.37,2013-01-26 10:16:00,
2013-01-26 04:21:00,6.6,3.6,30.19,NW,315,5.8,5.8,87,0.00,CLR,SKC,0.00,WeatherDisplay:10.37,2013-01-26 10:21:00,
2013-01-26 04:26:00,6.4,3.4,30.19,North,0,3.5,3.5,87,0.00,CLR,SKC,0.00,WeatherDisplay:10.37,2013-01-26 10:26:00,
2013-01-26 04:31:00,6.4,3.1,30.19,NW,315,4.6,4.6,86,0.00,CLR,SKC,0.00,WeatherDisplay:10.37,2013-01-26 10:31:00,
2013-01-26 04:37:00,6.4,3.1,30.19,NW,315,3.5,3.5,86,0.00,CLR,SKC,0.00,WeatherDisplay:10.37,2013-01-26 10:37:00,
2013-01-26 04:42:00,6.4,3.1,30.19,North,0,2.3,2.3,86,0.00,CLR,SKC,0.00,WeatherDisplay:10.37,2013-01-26 10:42:00,
2013-01-26 04:47:00,6.4,3.1,30.19,North,0,3.5,3.5,86,0.00,CLR,SKC,0.00,WeatherDisplay:10.37,2013-01-26 10:47:00,
2013-01-26 04:52:00,6.4,3.1,30.20,NNW,338,3.5,3.5,86,0.00,CLR,SKC,0.00,WeatherDisplay:10.37,2013-01-26 10:52:00,
2013-01-26 04:58:00,6.4,3.4,30.20,NW,315,3.5,3.5,87,0.00,CLR,SKC,0.00,WeatherDisplay:10.37,2013-01-26 10:58:00,
2013-01-26 05:03:00,6.4,3.4,30.19,West,270,2.3,2.3,87,0.00,CLR,SKC,0.00,WeatherDisplay:10.37,2013-01-26 11:03:00,
2013-01-26 05:08:00,6.4,3.1,30.19,North,0,3.5,0.0,86,0.00,CLR,SKC,0.00,WeatherDisplay:10.37,2013-01-26 11:08:00,
2013-01-26 05:14:00,6.4,3.1,30.20,NNW,338,3.5,3.5,86,0.00,CLR,SKC,0.00,WeatherDisplay:10.37,2013-01-26 11:14:00,
2013-01-26 05:19:00,6.4,3.1,30.20,North,0,3.5,3.5,86,0.00,CLR,SKC,0.00,WeatherDisplay:10.37,2013-01-26 11:19:00,
2013-01-26 05:24:00,6.4,3.4,30.20,NW,315,3.5,3.5,87,0.00,CLR,SKC,0.00,WeatherDisplay:10.37,2013-01-26 11:24:00,
2013-01-26 05:29:00,6.4,3.4,30.20,NW,315,3.5,3.5,87,0.00,CLR,SKC,0.00,WeatherDisplay:10.37,2013-01-26 11:29:00,
2013-01-26 05:34:00,6.4,3.4,30.20,NW,315,3.5,3.5,87,0.00,CLR,SKC,0.00,WeatherDisplay:10.37,2013-01-26 11:34:00,
2013-01-26 05:40:00,6.4,3.4,30.21,NNW,338,5.8,5.8,87,0.00,CLR,SKC,0.00,WeatherDisplay:10.37,2013-01-26 11:40:00,
2013-01-26 05:45:00,6.4,3.1,30.21,North,0,4.6,4.6,86,0.00,CLR,SKC,0.00,WeatherDisplay:10.37,2013-01-26 11:45:00,
2013-01-26 05:50:00,6.4,3.4,30.21,NW,315,3.5,3.5,87,0.00,CLR,SKC,0.00,WeatherDisplay:10.37,2013-01-26 11:50:00,
2013-01-26 05:56:00,6.4,3.4,30.21,NW,315,3.5,3.5,87,0.00,CLR,SKC,0.00,WeatherDisplay:10.37,2013-01-26 11:56:00,
2013-01-26 06:01:00,6.4,3.4,30.21,NW,315,3.5,3.5,87,0.00,CLR,SKC,0.00,WeatherDisplay:10.37,2013-01-26 12:01:00,
2013-01-26 06:06:00,6.4,3.4,30.21,NW,315,3.5,3.5,87,0.00,CLR,SKC,0.00,WeatherDisplay:10.37,2013-01-26 12:06:00,
2013-01-26 06:11:00,6.4,3.4,30.22,East,90,3.5,3.5,87,0.00,CLR,SKC,0.00,WeatherDisplay:10.37,2013-01-26 12:11:00,
2013-01-26 06:17:00,6.4,3.4,30.22,NW,315,2.3,2.3,87,0.00,CLR,SKC,0.00,WeatherDisplay:10.37,2013-01-26 12:17:00,
2013-01-26 06:22:00,6.4,3.4,30.22,NW,315,2.3,2.3,87,0.00,CLR,SKC,0.00,WeatherDisplay:10.37,2013-01-26 12:22:00,
2013-01-26 06:27:00,6.4,3.4,30.23,NW,315,3.5,3.5,87,0.00,CLR,SKC,0.00,WeatherDisplay:10.37,2013-01-26 12:27:00,
2013-01-26 06:32:00,6.4,3.4,30.23,North,0,2.3,0.0,87,0.00,CLR,SKC,0.00,WeatherDisplay:10.37,2013-01-26 12:32:00,
2013-01-26 06:38:00,6.4,3.4,30.23,North,0,1.1,1.1,87,0.00,CLR,SKC,0.00,WeatherDisplay:10.37,2013-01-26 12:38:00,
2013-01-26 06:43:00,6.4,3.4,30.23,North,0,3.5,0.0,87,0.00,CLR,SKC,0.00,WeatherDisplay:10.37,2013-01-26 12:43:00,
2013-01-26 06:48:00,6.4,3.4,30.23,North,0,0.0,0.0,87,0.00,CLR,SKC,0.00,WeatherDisplay:10.37,2013-01-26 12:48:00,
2013-01-26 06:53:00,6.4,3.4,30.22,NNW,338,2.3,2.3,87,0.00,CLR,SKC,0.00,WeatherDisplay:10.37,2013-01-26 12:53:00,
2013-01-26 06:59:00,6.3,3.2,30.23,NW,315,1.1,0.0,87,0.00,CLR,SKC,0.00,WeatherDisplay:10.37,2013-01-26 12:59:00,
2013-01-26 07:04:00,6.4,3.4,30.23,NW,315,0.0,0.0,87,0.00,CLR,SKC,0.00,WeatherDisplay:10.37,2013-01-26 13:04:00,
2013-01-26 07:09:00,6.3,3.2,30.23,NE,45,0.0,0.0,87,0.00,CLR,SKC,0.00,WeatherDisplay:10.37,2013-01-26 13:09:00,
2013-01-26 07:14:00,6.3,3.2,30.23,NE,45,0.0,0.0,87,0.00,CLR,SKC,0.00,WeatherDisplay:10.37,2013-01-26 13:14:00,
2013-01-26 07:19:00,6.3,3.2,30.23,NE,45,0.0,0.0,87,0.00,CLR,SKC,0.00,WeatherDisplay:10.37,2013-01-26 13:19:00,
2013-01-26 07:25:00,6.4,3.4,30.23,NE,45,0.0,0.0,87,0.00,CLR,SKC,0.00,WeatherDisplay:10.37,2013-01-26 13:25:00,
2013-01-26 07:30:00,6.4,3.4,30.24,NE,45,1.1,0.0,87,0.00,CLR,SKC,0.00,WeatherDisplay:10.37,2013-01-26 13:30:00,
2013-01-26 07:35:00,6.4,3.4,30.24,East,90,1.1,0.0,87,0.00,CLR,SKC,0.00,WeatherDisplay:10.37,2013-01-26 13:35:00,
2013-01-26 07:40:00,6.4,3.4,30.24,NW,315,2.3,2.3,87,0.00,CLR,SKC,0.00,WeatherDisplay:10.37,2013-01-26 13:40:00,
2013-01-26 07:46:00,6.6,3.6,30.24,East,90,2.3,0.0,87,0.00,CLR,SKC,0.00,WeatherDisplay:10.37,2013-01-26 13:46:00,
2013-01-26 07:51:00,6.8,3.8,30.24,East,90,0.0,0.0,87,0.00,CLR,SKC,0.00,WeatherDisplay:10.37,2013-01-26 13:51:00,
2013-01-26 07:56:00,6.8,3.8,30.24,NW,315,1.1,0.0,87,0.00,CLR,SKC,0.00,WeatherDisplay:10.37,2013-01-26 13:56:00,
2013-01-26 08:01:00,6.8,3.8,30.25,West,270,2.3,2.3,87,0.00,CLR,SKC,0.00,WeatherDisplay:10.37,2013-01-26 14:01:00,
2013-01-26 08:07:00,6.8,3.8,30.25,West,270,2.3,2.3,87,0.00,CLR,SKC,0.00,WeatherDisplay:10.37,2013-01-26 14:07:00,
2013-01-26 08:12:00,7.0,3.9,30.25,NW,315,1.6,0.0,87,0.00,CLR,SKC,0.00,WeatherDisplay:10.37,2013-01-26 14:12:00,
2013-01-26 08:17:00,7.2,4.1,30.26,NW,315,1.1,1.1,87,0.00,CLR,SKC,0.00,WeatherDisplay:10.37,2013-01-26 14:17:00,
2013-01-26 08:22:00,7.3,4.3,30.26,West,270,1.1,0.0,87,0.00,CLR,SKC,0.00,WeatherDisplay:10.37,2013-01-26 14:22:00,
2013-01-26 08:28:00,7.5,4.2,30.26,NW,315,1.1,1.1,86,0.00,CLR,SKC,0.00,WeatherDisplay:10.37,2013-01-26 14:28:00,
2013-01-26 08:33:00,7.7,4.4,30.26,North,0,1.1,0.0,86,0.00,CLR,SKC,0.00,WeatherDisplay:10.37,2013-01-26 14:33:00,
2013-01-26 08:38:00,8.1,5.0,30.26,NW,315,2.3,2.3,87,0.00,CLR,SKC,0.00,WeatherDisplay:10.37,2013-01-26 14:38:00,
2013-01-26 08:43:00,8.2,4.9,30.26,North,0,1.1,0.0,86,0.00,CLR,SKC,0.00,WeatherDisplay:10.37,2013-01-26 14:43:00,
2013-01-26 08:48:00,8.6,5.3,30.27,West,270,2.3,0.0,86,0.00,CLR,SKC,0.00,WeatherDisplay:10.37,2013-01-26 14:48:00,
2013-01-26 08:54:00,9.0,5.6,30.27,NW,315,1.1,0.0,86,0.00,CLR,SKC,0.00,WeatherDisplay:10.37,2013-01-26 14:54:00,
2013-01-26 08:59:00,9.7,6.3,30.27,North,0,1.1,0.0,86,0.00,CLR,SKC,0.00,WeatherDisplay:10.37,2013-01-26 14:59:00,
2013-01-26 09:04:00,9.7,6.3,30.27,North,0,1.1,0.0,86,0.00,CLR,SKC,0.00,WeatherDisplay:10.37,2013-01-26 15:04:00,
2013-01-26 09:09:00,10.0,6.4,30.27,SE,135,0.0,0.0,85,0.00,CLR,SKC,0.00,WeatherDisplay:10.37,2013-01-26 15:09:00,
2013-01-26 09:15:00,10.4,6.5,30.27,West,270,1.1,0.0,84,0.00,CLR,SKC,0.00,WeatherDisplay:10.37,2013-01-26 15:15:00,
2013-01-26 09:20:00,10.8,6.9,30.27,SW,225,1.1,0.0,84,0.00,CLR,SKC,0.00,WeatherDisplay:10.37,2013-01-26 15:20:00,
2013-01-26 09:25:00,10.8,6.6,30.27,SW,225,1.1,0.0,83,0.00,CLR,SKC,0.00,WeatherDisplay:10.37,2013-01-26 15:25:00,
2013-01-26 09:30:00,10.8,6.3,30.27,SW,225,2.3,2.3,82,0.00,CLR,SKC,0.00,WeatherDisplay:10.37,2013-01-26 15:30:00,
2013-01-26 09:36:00,10.8,6.3,30.27,West,270,3.5,3.5,82,0.00,CLR,SKC,0.00,WeatherDisplay:10.37,2013-01-26 15:36:00,
2013-01-26 09:41:00,10.6,6.2,30.28,West,270,2.3,2.3,82,0.00,CLR,SKC,0.00,WeatherDisplay:10.37,2013-01-26 15:41:00,
2013-01-26 09:46:00,11.1,6.7,30.28,NW,315,1.1,1.1,82,0.00,CLR,SKC,0.00,WeatherDisplay:10.37,2013-01-26 15:46:00,
2013-01-26 09:52:00,12.6,8.4,30.28,NW,315,1.1,0.0,83,0.00,CLR,SKC,0.00,WeatherDisplay:10.37,2013-01-26 15:52:00,
2013-01-26 09:57:00,14.0,9.8,30.29,NW,315,0.0,0.0,83,0.00,CLR,SKC,0.00,WeatherDisplay:10.37,2013-01-26 15:57:00,
2013-01-26 10:02:00,14.5,10.3,30.29,NW,315,0.0,0.0,83,0.00,CLR,SKC,0.00,WeatherDisplay:10.37,2013-01-26 16:02:00,
2013-01-26 10:07:00,15.4,10.9,30.28,NW,315,1.6,1.6,82,0.00,CLR,SKC,0.00,WeatherDisplay:10.37,2013-01-26 16:07:00,
2013-01-26 10:12:00,15.6,10.5,30.30,SW,225,3.5,3.5,80,0.00,CLR,SKC,0.00,WeatherDisplay:10.37,2013-01-26 16:12:00,
2013-01-26 10:18:00,15.8,10.4,30.29,NW,315,3.5,3.5,79,0.00,CLR,SKC,0.00,WeatherDisplay:10.37,2013-01-26 16:18:00,
2013-01-26 10:23:00,16.0,10.6,30.29,NW,315,1.6,1.6,79,0.00,CLR,SKC,0.00,WeatherDisplay:10.37,2013-01-26 16:23:00,
2013-01-26 10:28:00,16.2,10.2,30.29,NW,315,1.1,0.0,77,0.00,CLR,SKC,0.00,WeatherDisplay:10.37,2013-01-26 16:28:00,
2013-01-26 10:33:00,16.2,10.2,30.29,NW,315,1.1,1.1,77,0.00,CLR,SKC,0.00,WeatherDisplay:10.37,2013-01-26 16:33:00,
2013-01-26 10:38:00,16.2,9.9,30.28,West,270,2.3,2.3,76,0.00,CLR,SKC,0.00,WeatherDisplay:10.37,2013-01-26 16:38:00,
2013-01-26 10:44:00,16.7,10.4,30.28,NW,315,2.3,2.3,76,0.00,CLR,SKC,0.00,WeatherDisplay:10.37,2013-01-26 16:44:00,
2013-01-26 10:49:00,17.1,10.5,30.27,SW,225,3.5,3.5,75,0.00,CLR,SKC,0.00,WeatherDisplay:10.37,2013-01-26 16:49:00,
2013-01-26 10:54:00,17.2,10.4,30.28,East,90,1.1,0.0,74,0.00,CLR,SKC,0.00,WeatherDisplay:10.37,2013-01-26 16:54:00,
2013-01-26 10:59:00,18.3,11.1,30.28,NNW,338,2.3,2.3,73,0.00,CLR,SKC,0.00,WeatherDisplay:10.37,2013-01-26 16:59:00,
2013-01-26 11:05:00,18.3,11.1,30.28,NNW,338,2.3,2.3,73,0.00,CLR,SKC,0.00,WeatherDisplay:10.37,2013-01-26 17:05:00,
2013-01-26 11:10:00,19.4,11.8,30.27,SW,225,3.5,3.5,72,0.00,CLR,SKC,0.00,WeatherDisplay:10.37,2013-01-26 17:10:00,
2013-01-26 11:15:00,20.1,12.2,30.27,NE,45,2.3,2.3,71,0.00,CLR,SKC,0.00,WeatherDisplay:10.37,2013-01-26 17:15:00,
2013-01-26 11:20:00,21.7,13.1,30.26,East,90,3.5,3.5,69,0.00,CLR,SKC,0.00,WeatherDisplay:10.37,2013-01-26 17:20:00,
2013-01-26 11:25:00,21.7,12.5,30.27,NE,45,3.5,3.5,67,0.00,CLR,SKC,0.00,WeatherDisplay:10.37,2013-01-26 17:25:00,
2013-01-26 11:30:00,21.7,11.8,30.27,South,180,3.5,3.5,65,0.00,CLR,SKC,0.00,WeatherDisplay:10.37,2013-01-26 17:30:00,
2013-01-26 11:36:00,22.5,12.8,30.26,SW,225,4.6,4.6,66,0.00,CLR,SKC,0.00,WeatherDisplay:10.37,2013-01-26 17:36:00,
2013-01-26 11:41:00,20.7,10.7,30.27,South,180,6.9,6.9,65,0.00,CLR,SKC,0.00,WeatherDisplay:10.37,2013-01-26 17:41:00,
2013-01-26 11:46:00,20.3,11.1,30.27,SW,225,4.6,4.6,67,0.00,CLR,SKC,0.00,WeatherDisplay:10.37,2013-01-26 17:46:00,
2013-01-26 11:51:00,20.1,10.9,30.26,SW,225,5.8,5.8,67,0.00,CLR,SKC,0.00,WeatherDisplay:10.37,2013-01-26 17:51:00,
2013-01-26 11:57:00,19.9,10.7,30.26,West,270,4.6,4.6,67,0.00,CLR,SKC,0.00,WeatherDisplay:10.37,2013-01-26 17:57:00,
2013-01-26 12:02:00,20.1,10.9,30.26,SW,225,4.6,4.6,67,0.00,CLR,SKC,0.00,WeatherDisplay:10.37,2013-01-26 18:02:00,
2013-01-26 12:07:00,19.9,10.7,30.26,SW,225,4.6,4.6,67,0.00,CLR,SKC,0.00,WeatherDisplay:10.37,2013-01-26 18:07:00,
2013-01-26 12:12:00,20.7,11.1,30.26,SW,225,3.8,3.8,66,0.00,CLR,SKC,0.00,WeatherDisplay:10.37,2013-01-26 18:12:00,
2013-01-26 12:17:00,22.3,12.6,30.26,SW,225,3.5,3.5,66,0.00,CLR,SKC,0.00,WeatherDisplay:10.37,2013-01-26 18:17:00,
2013-01-26 12:23:00,23.0,13.0,30.26,SE,135,8.1,8.1,65,0.00,CLR,SKC,0.00,WeatherDisplay:10.37,2013-01-26 18:23:00,
2013-01-26 12:28:00,24.8,14.3,30.26,SW,225,3.5,3.5,64,0.00,CLR,SKC,0.00,WeatherDisplay:10.37,2013-01-26 18:28:00,
2013-01-26 12:33:00,24.6,13.1,30.26,SW,225,5.8,5.8,61,0.00,CLR,SKC,0.00,WeatherDisplay:10.37,2013-01-26 18:33:00,
2013-01-26 12:38:00,24.6,13.4,30.26,SE,135,3.5,3.5,62,0.00,CLR,SKC,0.00,WeatherDisplay:10.37,2013-01-26 18:38:00,
2013-01-26 12:44:00,25.5,13.5,30.25,SW,225,5.8,5.8,60,0.00,CLR,SKC,0.00,WeatherDisplay:10.37,2013-01-26 18:44:00,
2013-01-26 12:49:00,25.2,12.8,30.25,South,180,8.1,8.1,59,0.00,CLR,SKC,0.00,WeatherDisplay:10.37,2013-01-26 18:49:00,
2013-01-26 12:54:00,23.5,11.7,30.25,SSW,202,8.1,8.1,60,0.00,CLR,SKC,0.00,WeatherDisplay:10.37,2013-01-26 18:54:00,
2013-01-26 12:59:00,23.7,12.6,30.25,South,180,8.1,8.1,62,0.00,CLR,SKC,0.00,WeatherDisplay:10.37,2013-01-26 18:59:00,
2013-01-26 13:05:00,23.9,12.8,30.25,South,180,3.5,3.5,62,0.00,CLR,SKC,0.00,WeatherDisplay:10.37,2013-01-26 19:05:00,
2013-01-26 13:10:00,23.7,12.6,30.25,SW,225,3.5,3.5,62,0.00,CLR,SKC,0.00,WeatherDisplay:10.37,2013-01-26 19:10:00,
2013-01-26 13:15:00,21.7,11.1,30.25,South,180,8.1,8.1,63,0.00,CLR,SKC,0.00,WeatherDisplay:10.37,2013-01-26 19:15:00,
2013-01-26 13:20:00,21.4,11.8,30.25,South,180,3.5,3.5,66,0.00,CLR,SKC,0.00,WeatherDisplay:10.37,2013-01-26 19:20:00,
2013-01-26 13:26:00,21.4,11.8,30.25,South,180,6.0,6.0,66,0.00,CLR,SKC,0.00,WeatherDisplay:10.37,2013-01-26 19:26:00,
2013-01-26 13:31:00,20.5,10.9,30.25,SW,225,6.9,6.9,66,0.00,CLR,SKC,0.00,WeatherDisplay:10.37,2013-01-26 19:31:00,
2013-01-26 13:36:00,19.6,10.7,30.25,South,180,6.9,6.9,68,0.00,CLR,SKC,0.00,WeatherDisplay:10.37,2013-01-26 19:36:00,
2013-01-26 13:41:00,19.6,11.1,30.26,South,180,4.6,4.6,69,0.00,CLR,SKC,0.00,WeatherDisplay:10.37,2013-01-26 19:41:00,
2013-01-26 13:46:00,19.6,11.1,30.26,West,270,6.9,6.9,69,0.00,CLR,SKC,0.00,WeatherDisplay:10.37,2013-01-26 19:46:00,
2013-01-26 13:52:00,19.2,11.0,30.26,SW,225,10.4,10.4,70,0.00,CLR,SKC,0.00,WeatherDisplay:10.37,2013-01-26 19:52:00,
2013-01-26 13:57:00,19.2,11.0,30.26,West,270,3.5,3.5,70,0.00,CLR,SKC,0.00,WeatherDisplay:10.37,2013-01-26 19:57:00,
2013-01-26 14:02:00,19.2,11.0,30.25,West,270,5.8,5.8,70,0.00,CLR,SKC,0.00,WeatherDisplay:10.37,2013-01-26 20:02:00,
2013-01-26 14:08:00,19.0,10.5,30.25,SW,225,5.8,5.8,69,0.00,CLR,SKC,0.00,WeatherDisplay:10.37,2013-01-26 20:08:00,
2013-01-26 14:13:00,19.0,10.5,30.25,West,270,3.5,3.5,69,0.00,CLR,SKC,0.00,WeatherDisplay:10.37,2013-01-26 20:13:00,
2013-01-26 14:18:00,19.0,10.5,30.26,West,270,5.8,5.8,69,0.00,CLR,SKC,0.00,WeatherDisplay:10.37,2013-01-26 20:18:00,
2013-01-26 14:23:00,18.5,10.3,30.25,West,270,5.8,5.8,70,0.00,CLR,SKC,0.00,WeatherDisplay:10.37,2013-01-26 20:23:00,
2013-01-26 14:29:00,18.5,10.3,30.25,SW,225,6.9,6.9,70,0.00,CLR,SKC,0.00,WeatherDisplay:10.37,2013-01-26 20:29:00,
2013-01-26 14:34:00,18.7,10.5,30.24,SW,225,3.5,3.5,70,0.00,CLR,SKC,0.00,WeatherDisplay:10.37,2013-01-26 20:34:00,
2013-01-26 14:39:00,18.7,10.5,30.24,South,180,5.8,5.8,70,0.00,CLR,SKC,0.00,WeatherDisplay:10.37,2013-01-26 20:39:00,
2013-01-26 14:44:00,18.7,10.5,30.24,South,180,4.6,4.6,70,0.00,CLR,SKC,0.00,WeatherDisplay:10.37,2013-01-26 20:44:00,
2013-01-26 14:50:00,18.9,11.0,30.24,SW,225,5.8,5.8,71,0.00,CLR,SKC,0.00,WeatherDisplay:10.37,2013-01-26 20:50:00,
2013-01-26 14:55:00,18.5,11.0,30.24,SW,225,6.9,6.9,72,0.00,CLR,SKC,0.00,WeatherDisplay:10.37,2013-01-26 20:55:00,
2013-01-26 15:00:00,18.3,10.8,30.23,SW,225,8.1,8.1,72,0.00,CLR,SKC,0.00,WeatherDisplay:10.37,2013-01-26 21:00:00,
2013-01-26 15:05:00,18.3,10.8,30.24,SW,225,8.1,8.1,72,0.00,CLR,SKC,0.00,WeatherDisplay:10.37,2013-01-26 21:05:00,
2013-01-26 15:10:00,18.5,11.3,30.23,SE,135,5.8,5.8,73,0.00,CLR,SKC,0.00,WeatherDisplay:10.37,2013-01-26 21:10:00,
2013-01-26 15:16:00,18.5,11.3,30.23,South,180,3.5,3.5,73,0.00,CLR,SKC,0.00,WeatherDisplay:10.37,2013-01-26 21:16:00,
2013-01-26 15:21:00,18.5,11.3,30.23,South,180,3.5,3.5,73,0.00,CLR,SKC,0.00,WeatherDisplay:10.37,2013-01-26 21:21:00,
2013-01-26 15:26:00,18.5,11.3,30.24,South,180,5.8,5.8,73,0.00,CLR,SKC,0.00,WeatherDisplay:10.37,2013-01-26 21:26:00,
2013-01-26 15:31:00,18.5,11.3,30.24,South,180,4.6,4.6,73,0.00,CLR,SKC,0.00,WeatherDisplay:10.37,2013-01-26 21:31:00,
2013-01-26 15:37:00,18.3,11.1,30.23,South,180,4.6,4.6,73,0.00,CLR,SKC,0.00,WeatherDisplay:10.37,2013-01-26 21:37:00,
2013-01-26 15:42:00,18.3,11.4,30.23,SW,225,8.1,8.1,74,0.00,CLR,SKC,0.00,WeatherDisplay:10.37,2013-01-26 21:42:00,
2013-01-26 15:47:00,18.3,11.4,30.23,SW,225,5.8,5.8,74,0.00,CLR,SKC,0.00,WeatherDisplay:10.37,2013-01-26 21:47:00,
2013-01-26 15:52:00,18.3,11.4,30.23,SE,135,6.9,6.9,74,0.00,CLR,SKC,0.00,WeatherDisplay:10.37,2013-01-26 21:52:00,
2013-01-26 15:58:00,18.3,11.4,30.22,South,180,9.2,9.2,74,0.00,CLR,SKC,0.00,WeatherDisplay:10.37,2013-01-26 21:58:00,
2013-01-26 16:03:00,18.3,11.4,30.22,East,90,3.5,3.5,74,0.00,CLR,SKC,0.00,WeatherDisplay:10.37,2013-01-26 22:03:00,
2013-01-26 16:08:00,18.3,11.7,30.23,South,180,6.0,6.0,75,0.00,CLR,SKC,0.00,WeatherDisplay:10.37,2013-01-26 22:08:00,
2013-01-26 16:13:00,18.3,11.7,30.22,South,180,3.5,3.5,75,0.00,CLR,SKC,0.00,WeatherDisplay:10.37,2013-01-26 22:13:00,
2013-01-26 16:18:00,18.3,11.7,30.21,South,180,4.6,4.6,75,0.00,CLR,SKC,0.00,WeatherDisplay:10.37,2013-01-26 22:18:00,
2013-01-26 16:23:00,18.1,11.5,30.21,SE,135,2.3,2.3,75,0.00,CLR,SKC,0.00,WeatherDisplay:10.37,2013-01-26 22:23:00,
2013-01-26 16:29:00,18.1,11.5,30.22,South,180,6.9,6.9,75,0.00,CLR,SKC,0.00,WeatherDisplay:10.37,2013-01-26 22:29:00,
2013-01-26 16:34:00,18.0,11.4,30.22,South,180,3.5,3.5,75,0.00,CLR,SKC,0.00,WeatherDisplay:10.37,2013-01-26 22:34:00,
2013-01-26 16:39:00,18.0,11.7,30.22,East,90,1.1,0.0,76,0.00,CLR,SKC,0.00,WeatherDisplay:10.37,2013-01-26 22:39:00,
2013-01-26 16:44:00,17.8,11.5,30.21,South,180,3.5,3.5,76,0.00,CLR,SKC,0.00,WeatherDisplay:10.37,2013-01-26 22:44:00,
2013-01-26 16:50:00,17.8,11.5,30.21,South,180,3.5,3.5,76,0.00,CLR,SKC,0.00,WeatherDisplay:10.37,2013-01-26 22:50:00,
2013-01-26 16:55:00,17.6,11.6,30.21,South,180,3.5,3.5,77,0.00,CLR,SKC,0.00,WeatherDisplay:10.37,2013-01-26 22:55:00,
2013-01-26 17:00:00,17.6,11.9,30.20,SE,135,3.5,3.5,78,0.00,CLR,SKC,0.00,WeatherDisplay:10.37,2013-01-26 23:00:00,
2013-01-26 17:05:00,17.6,11.9,30.20,SE,135,3.5,3.5,78,0.00,CLR,SKC,0.00,WeatherDisplay:10.37,2013-01-26 23:05:00,
2013-01-26 17:10:00,17.6,12.2,30.20,South,180,6.9,6.9,79,0.00,CLR,SKC,0.00,WeatherDisplay:10.37,2013-01-26 23:10:00,
2013-01-26 17:15:00,17.6,12.2,30.20,SE,135,5.8,5.8,79,0.00,CLR,SKC,0.00,WeatherDisplay:10.37,2013-01-26 23:15:00,
2013-01-26 17:21:00,17.4,12.0,30.20,ENE,68,4.6,4.6,79,0.00,CLR,SKC,0.00,WeatherDisplay:10.37,2013-01-26 23:21:00,
2013-01-26 17:26:00,17.4,12.3,30.21,SW,225,4.6,4.6,80,0.00,CLR,SKC,0.00,WeatherDisplay:10.37,2013-01-26 23:26:00,
2013-01-26 17:31:00,17.4,12.3,30.20,West,270,4.6,4.6,80,0.00,CLR,SKC,0.00,WeatherDisplay:10.37,2013-01-26 23:31:00,
2013-01-26 17:36:00,17.4,12.3,30.21,SSW,202,8.1,8.1,80,0.00,CLR,SKC,0.00,WeatherDisplay:10.37,2013-01-26 23:36:00,
2013-01-26 17:41:00,17.4,12.3,30.21,South,180,5.8,5.8,80,0.00,CLR,SKC,0.00,WeatherDisplay:10.37,2013-01-26 23:41:00,
2013-01-26 17:46:00,17.4,12.3,30.20,South,180,4.6,4.6,80,0.00,CLR,SKC,0.00,WeatherDisplay:10.37,2013-01-26 23:46:00,
2013-01-26 17:52:00,17.4,12.3,30.20,South,180,5.8,5.8,80,0.00,CLR,SKC,0.00,WeatherDisplay:10.37,2013-01-26 23:52:00,
2013-01-26 17:57:00,17.2,12.4,30.19,SE,135,3.5,3.5,81,0.00,CLR,SKC,0.00,WeatherDisplay:10.37,2013-01-26 23:57:00,
2013-01-26 18:02:00,17.2,12.4,30.20,SE,135,3.5,3.5,81,0.00,CLR,SKC,0.00,WeatherDisplay:10.37,2013-01-27 00:02:00,
2013-01-26 18:08:00,17.2,12.4,30.20,SE,135,6.9,6.9,81,0.00,CLR,SKC,0.00,WeatherDisplay:10.37,2013-01-27 00:08:00,
2013-01-26 18:13:00,17.2,12.4,30.20,SW,225,5.8,5.8,81,0.00,CLR,SKC,0.00,WeatherDisplay:10.37,2013-01-27 00:13:00,
2013-01-26 18:18:00,17.2,12.4,30.20,SE,135,4.6,4.6,81,0.00,CLR,SKC,0.00,WeatherDisplay:10.37,2013-01-27 00:18:00,
2013-01-26 18:23:00,17.4,12.3,30.20,South,180,4.6,4.6,80,0.00,CLR,SKC,0.00,WeatherDisplay:10.37,2013-01-27 00:23:00,
2013-01-26 18:28:00,17.4,12.6,30.20,East,90,4.6,4.6,81,0.00,CLR,SKC,0.00,WeatherDisplay:10.37,2013-01-27 00:28:00,
2013-01-26 18:33:00,17.2,12.4,30.20,South,180,5.8,5.8,81,0.00,CLR,SKC,0.00,WeatherDisplay:10.37,2013-01-27 00:33:00,
2013-01-26 18:38:00,17.2,12.4,30.20,SE,135,5.8,5.8,81,0.00,CLR,SKC,0.00,WeatherDisplay:10.37,2013-01-27 00:38:00,
2013-01-26 18:44:00,17.2,12.4,30.19,SE,135,3.5,3.5,81,0.00,CLR,SKC,0.00,WeatherDisplay:10.37,2013-01-27 00:44:00,
2013-01-26 18:49:00,17.2,12.4,30.19,SE,135,4.6,4.6,81,0.00,CLR,SKC,0.00,WeatherDisplay:10.37,2013-01-27 00:49:00,
2013-01-26 18:54:00,17.2,12.4,30.19,NE,45,5.8,5.8,81,0.00,CLR,SKC,0.00,WeatherDisplay:10.37,2013-01-27 00:54:00,
2013-01-26 18:59:00,17.2,12.4,30.19,South,180,6.9,6.9,81,0.00,CLR,SKC,0.00,WeatherDisplay:10.37,2013-01-27 00:59:00,
2013-01-26 19:04:00,17.2,12.4,30.18,South,180,5.8,5.8,81,0.00,CLR,SKC,0.00,WeatherDisplay:10.37,2013-01-27 01:04:00,
2013-01-26 19:10:00,17.2,12.4,30.18,East,90,6.9,6.9,81,0.00,CLR,SKC,0.00,WeatherDisplay:10.37,2013-01-27 01:10:00,
2013-01-26 19:15:00,17.2,12.4,30.19,WSW,248,6.9,6.9,81,0.00,CLR,SKC,0.00,WeatherDisplay:10.37,2013-01-27 01:15:00,
2013-01-26 19:20:00,17.2,12.4,30.17,South,180,6.9,6.9,81,0.00,CLR,SKC,0.00,WeatherDisplay:10.37,2013-01-27 01:20:00,
2013-01-26 19:25:00,17.1,12.2,30.18,South,180,8.1,8.1,81,0.00,CLR,SKC,0.00,WeatherDisplay:10.37,2013-01-27 01:25:00,
2013-01-26 19:30:00,17.1,12.2,30.18,South,180,5.8,5.8,81,0.00,CLR,SKC,0.00,WeatherDisplay:10.37,2013-01-27 01:30:00,
2013-01-26 19:36:00,16.9,12.1,30.17,South,180,8.1,8.1,81,0.00,CLR,SKC,0.00,WeatherDisplay:10.37,2013-01-27 01:36:00,
2013-01-26 19:41:00,16.9,12.1,30.17,SE,135,8.1,8.1,81,0.00,CLR,SKC,0.00,WeatherDisplay:10.37,2013-01-27 01:41:00,
2013-01-26 19:46:00,16.9,12.1,30.17,East,90,8.1,8.1,81,0.00,CLR,SKC,0.00,WeatherDisplay:10.37,2013-01-27 01:46:00,
2013-01-26 19:51:00,16.9,11.8,30.17,South,180,14.5,14.5,80,0.00,CLR,SKC,0.00,WeatherDisplay:10.37,2013-01-27 01:51:00,
2013-01-26 19:56:00,16.9,11.8,30.17,NW,315,8.1,8.1,80,0.00,CLR,SKC,0.00,WeatherDisplay:10.37,2013-01-27 01:56:00,
2013-01-26 20:01:00,16.7,11.3,30.17,South,180,11.5,11.5,79,0.00,CLR,SKC,0.00,WeatherDisplay:10.37,2013-01-27 02:01:00,
2013-01-26 20:07:00,16.7,11.3,30.17,South,180,11.5,11.5,79,0.00,CLR,SKC,0.00,WeatherDisplay:10.37,2013-01-27 02:07:00,
2013-01-26 20:12:00,16.7,11.0,30.17,South,180,10.4,10.4,78,0.00,CLR,SKC,0.00,WeatherDisplay:10.37,2013-01-27 02:12:00,
2013-01-26 20:17:00,16.7,11.0,30.17,SW,225,10.4,10.4,78,0.00,CLR,SKC,0.00,WeatherDisplay:10.37,2013-01-27 02:17:00,
2013-01-26 20:22:00,16.5,10.9,30.17,South,180,9.2,9.2,78,0.00,CLR,SKC,0.00,WeatherDisplay:10.37,2013-01-27 02:22:00,
2013-01-26 20:27:00,16.5,10.9,30.16,South,180,8.1,8.1,78,0.00,CLR,SKC,0.00,WeatherDisplay:10.37,2013-01-27 02:27:00,
2013-01-26 20:33:00,16.3,10.4,30.16,South,180,9.2,9.2,77,0.00,CLR,SKC,0.00,WeatherDisplay:10.37,2013-01-27 02:33:00,
2013-01-26 20:38:00,16.3,10.7,30.17,SW,225,8.1,8.1,78,0.00,CLR,SKC,0.00,WeatherDisplay:10.37,2013-01-27 02:38:00,
2013-01-26 20:43:00,16.3,10.7,30.17,SW,225,8.1,8.1,78,0.00,CLR,SKC,0.00,WeatherDisplay:10.37,2013-01-27 02:43:00,
2013-01-26 20:48:00,16.3,10.7,30.18,South,180,8.1,8.1,78,0.00,CLR,SKC,0.00,WeatherDisplay:10.37,2013-01-27 02:48:00,
2013-01-26 20:53:00,16.2,10.5,30.18,NW,315,15.0,15.0,78,0.00,CLR,SKC,0.00,WeatherDisplay:10.37,2013-01-27 02:53:00,
2013-01-26 20:59:00,16.2,10.5,30.18,SW,225,5.8,5.8,78,0.00,CLR,SKC,0.00,WeatherDisplay:10.37,2013-01-27 02:59:00,
2013-01-26 21:04:00,16.2,10.5,30.18,SW,225,9.2,9.2,78,0.00,CLR,SKC,0.00,WeatherDisplay:10.37,2013-01-27 03:04:00,
2013-01-26 21:09:00,16.3,10.7,30.18,South,180,9.2,9.2,78,0.00,CLR,SKC,0.00,WeatherDisplay:10.37,2013-01-27 03:09:00,
2013-01-26 21:14:00,16.3,10.7,30.18,South,180,12.7,12.7,78,0.00,CLR,SKC,0.00,WeatherDisplay:10.37,2013-01-27 03:14:00,
2013-01-26 21:19:00,16.3,10.7,30.18,South,180,5.8,5.8,78,0.00,CLR,SKC,0.00,WeatherDisplay:10.37,2013-01-27 03:19:00,
2013-01-26 21:24:00,16.2,10.5,30.19,South,180,8.1,8.1,78,0.00,CLR,SKC,0.00,WeatherDisplay:10.37,2013-01-27 03:24:00,
2013-01-26 21:30:00,16.2,10.5,30.18,South,180,6.9,6.9,78,0.00,CLR,SKC,0.00,WeatherDisplay:10.37,2013-01-27 03:30:00,
2013-01-26 21:35:00,16.2,10.5,30.19,South,180,8.1,8.1,78,0.00,CLR,SKC,0.00,WeatherDisplay:10.37,2013-01-27 03:35:00,
2013-01-26 21:40:00,16.2,10.5,30.19,South,180,5.8,5.8,78,0.00,CLR,SKC,0.00,WeatherDisplay:10.37,2013-01-27 03:40:00,
2013-01-26 21:46:00,16.2,10.5,30.19,West,270,5.8,5.8,78,0.00,CLR,SKC,0.00,WeatherDisplay:10.37,2013-01-27 03:46:00,
2013-01-26 21:51:00,16.2,10.5,30.19,SE,135,9.2,9.2,78,0.00,CLR,SKC,0.00,WeatherDisplay:10.37,2013-01-27 03:51:00,
2013-01-26 21:56:00,16.2,10.5,30.18,South,180,10.4,10.4,78,0.00,CLR,SKC,0.00,WeatherDisplay:10.37,2013-01-27 03:56:00,
2013-01-26 22:01:00,16.2,10.5,30.18,SW,225,11.5,11.5,78,0.00,CLR,SKC,0.00,WeatherDisplay:10.37,2013-01-27 04:01:00,
2013-01-26 22:07:00,16.2,10.5,30.18,SW,225,11.5,11.5,78,0.00,CLR,SKC,0.00,WeatherDisplay:10.37,2013-01-27 04:07:00,
2013-01-26 22:12:00,16.2,10.5,30.18,South,180,10.4,10.4,78,0.00,CLR,SKC,0.00,WeatherDisplay:10.37,2013-01-27 04:12:00,
2013-01-26 22:17:00,16.0,10.3,30.18,South,180,10.4,10.4,78,0.00,CLR,SKC,0.00,WeatherDisplay:10.37,2013-01-27 04:17:00,
2013-01-26 22:22:00,16.0,10.3,30.18,South,180,8.1,8.1,78,0.00,CLR,SKC,0.00,WeatherDisplay:10.37,2013-01-27 04:22:00,
2013-01-26 22:27:00,16.0,10.3,30.18,South,180,10.4,10.4,78,0.00,CLR,SKC,0.00,WeatherDisplay:10.37,2013-01-27 04:27:00,
2013-01-26 22:33:00,16.0,10.3,30.17,SW,225,9.2,9.2,78,0.00,CLR,SKC,0.00,WeatherDisplay:10.37,2013-01-27 04:33:00,
2013-01-26 22:38:00,15.8,10.2,30.17,South,180,8.1,8.1,78,0.00,CLR,SKC,0.00,WeatherDisplay:10.37,2013-01-27 04:38:00,
2013-01-26 22:43:00,15.8,10.4,30.18,SW,225,10.7,10.7,79,0.00,CLR,SKC,0.00,WeatherDisplay:10.37,2013-01-27 04:43:00,
2013-01-26 22:48:00,16.0,10.6,30.18,SW,225,5.8,5.8,79,0.00,CLR,SKC,0.00,WeatherDisplay:10.37,2013-01-27 04:48:00,
2013-01-26 22:54:00,16.0,10.6,30.18,South,180,11.5,11.5,79,0.00,CLR,SKC,0.00,WeatherDisplay:10.37,2013-01-27 04:54:00,
2013-01-26 22:59:00,16.0,10.6,30.17,South,180,9.2,9.2,79,0.00,CLR,SKC,0.00,WeatherDisplay:10.37,2013-01-27 04:59:00,
2013-01-26 23:00:00,16.0,10.6,30.18,SW,225,9.2,9.2,79,0.00,CLR,SKC,0.00,WeatherDisplay:10.37,2013-01-27 05:00:00,
2013-01-26 23:01:00,16.0,10.6,30.18,SW,225,8.1,8.1,79,0.00,CLR,SKC,0.00,WeatherDisplay:10.37,2013-01-27 05:01:00,
2013-01-26 23:03:00,16.0,10.6,30.17,SW,225,8.1,8.1,79,0.00,CLR,SKC,0.00,WeatherDisplay:10.37,2013-01-27 05:03:00,
2013-01-26 23:08:00,15.8,10.4,30.18,SSW,202,8.1,8.1,79,0.00,CLR,SKC,0.00,WeatherDisplay:10.37,2013-01-27 05:08:00,
2013-01-26 23:13:00,16.0,10.3,30.18,South,180,10.4,10.4,78,0.00,CLR,SKC,0.00,WeatherDisplay:10.37,2013-01-27 05:13:00,
2013-01-26 23:18:00,16.0,10.3,30.17,South,180,12.7,12.7,78,0.00,CLR,SKC,0.00,WeatherDisplay:10.37,2013-01-27 05:18:00,
2013-01-26 23:23:00,16.0,10.6,30.17,South,180,6.9,6.9,79,0.00,CLR,SKC,0.00,WeatherDisplay:10.37,2013-01-27 05:23:00,